sensor_id;sensor_type;location;lat;lon;timestamp;pressure;altitude;pressure_sealevel;temperature;humidity
70488;BME280;57976;48.174;16.370;2023-03-01T07:12:06;100263.77;;;2.79;64.74
70488;BME280;57976;48.174;16.370;2023-03-01T07:14:11;100256.56;;;2.79;64.90
70488;BME280;57976;48.174;16.370;2023-03-01T07:16:16;100262.10;;;2.82;64.42
70488;BME280;57976;48.174;16.370;2023-03-01T07:18:21;100260.31;;;2.80;64.54
70488;BME280;57976;48.174;16.370;2023-03-01T07:20:25;100256.30;;;2.84;64.45
70488;BME280;57976;48.174;16.370;2023-03-01T07:22:30;100255.23;;;2.90;64.20
70488;BME280;57976;48.174;16.370;2023-03-01T07:24:35;100259.38;;;2.93;64.13
70488;BME280;57976;48.174;16.370;2023-03-01T07:26:40;100259.73;;;2.93;63.81
70488;BME280;57976;48.174;16.370;2023-03-01T07:28:45;100252.88;;;2.91;63.76
70488;BME280;57976;48.174;16.370;2023-03-01T07:30:49;100256.81;;;2.94;63.83
70488;BME280;57976;48.174;16.370;2023-03-01T07:32:54;100254.33;;;2.97;64.33
70488;BME280;57976;48.174;16.370;2023-03-01T07:34:59;100249.17;;;3.06;64.79
70488;BME280;57976;48.174;16.370;2023-03-01T07:37:04;100253.06;;;3.15;64.23
70488;BME280;57976;48.174;16.370;2023-03-01T07:39:10;100250.25;;;3.16;63.54
70488;BME280;57976;48.174;16.370;2023-03-01T07:41:15;100255.30;;;3.16;63.62
70488;BME280;57976;48.174;16.370;2023-03-01T07:43:20;100253.80;;;3.19;63.40
70488;BME280;57976;48.174;16.370;2023-03-01T07:45:25;100251.39;;;3.24;63.17
70488;BME280;57976;48.174;16.370;2023-03-01T07:47:30;100252.66;;;3.28;62.82
70488;BME280;57976;48.174;16.370;2023-03-01T07:49:35;100252.86;;;3.28;62.77
70488;BME280;57976;48.174;16.370;2023-03-01T07:51:40;100252.55;;;3.29;62.78
70488;BME280;57976;48.174;16.370;2023-03-01T07:53:47;100250.92;;;3.32;62.66
70488;BME280;57976;48.174;16.370;2023-03-01T07:56:01;100251.89;;;3.31;62.72
70488;BME280;57976;48.174;16.370;2023-03-01T07:58:06;100250.61;;;3.36;62.71
70488;BME280;57976;48.174;16.370;2023-03-01T08:00:13;100251.38;;;3.35;62.33
70488;BME280;57976;48.174;16.370;2023-03-01T08:02:19;100252.70;;;3.36;62.65
70488;BME280;57976;48.174;16.370;2023-03-01T08:04:24;100249.49;;;3.42;62.42
70488;BME280;57976;48.174;16.370;2023-03-01T08:06:29;100249.54;;;3.49;62.37
70488;BME280;57976;48.174;16.370;2023-03-01T08:08:35;100247.81;;;3.59;62.27
70488;BME280;57976;48.174;16.370;2023-03-01T08:10:40;100248.41;;;3.72;62.23
70488;BME280;57976;48.174;16.370;2023-03-01T08:12:45;100246.15;;;3.80;61.62
70488;BME280;57976;48.174;16.370;2023-03-01T08:14:50;100246.04;;;3.79;61.07
70488;BME280;57976;48.174;16.370;2023-03-01T08:16:54;100247.04;;;3.80;61.42
70488;BME280;57976;48.174;16.370;2023-03-01T08:19:05;100247.95;;;3.86;61.33
70488;BME280;57976;48.174;16.370;2023-03-01T08:21:11;100244.45;;;3.91;60.66
70488;BME280;57976;48.174;16.370;2023-03-01T08:23:16;100240.83;;;3.94;60.22
70488;BME280;57976;48.174;16.370;2023-03-01T08:25:21;100239.09;;;3.96;60.51
70488;BME280;57976;48.174;16.370;2023-03-01T08:27:26;100242.60;;;4.08;60.83
70488;BME280;57976;48.174;16.370;2023-03-01T08:29:33;100242.75;;;4.23;60.82
70488;BME280;57976;48.174;16.370;2023-03-01T08:31:38;100235.67;;;4.39;60.75
70488;BME280;57976;48.174;16.370;2023-03-01T08:33:44;100238.92;;;4.54;60.64
70488;BME280;57976;48.174;16.370;2023-03-01T08:35:51;100237.44;;;4.68;60.51
70488;BME280;57976;48.174;16.370;2023-03-01T08:37:56;100235.14;;;4.81;60.30
70488;BME280;57976;48.174;16.370;2023-03-01T08:40:01;100235.91;;;4.89;60.28
70488;BME280;57976;48.174;16.370;2023-03-01T08:42:06;100233.29;;;4.99;60.27
70488;BME280;57976;48.174;16.370;2023-03-01T08:44:12;100228.70;;;5.08;60.08
70488;BME280;57976;48.174;16.370;2023-03-01T08:46:18;100227.49;;;5.15;60.15
70488;BME280;57976;48.174;16.370;2023-03-01T08:48:22;100219.69;;;5.21;59.68
70488;BME280;57976;48.174;16.370;2023-03-01T08:50:27;100215.70;;;5.26;59.72
70488;BME280;57976;48.174;16.370;2023-03-01T08:52:33;100216.59;;;5.20;59.49
70488;BME280;57976;48.174;16.370;2023-03-01T08:54:38;100215.90;;;5.17;59.79
70488;BME280;57976;48.174;16.370;2023-03-01T08:56:42;100216.15;;;5.19;59.73
70488;BME280;57976;48.174;16.370;2023-03-01T08:58:48;100214.65;;;5.26;59.65
70488;BME280;57976;48.174;16.370;2023-03-01T09:00:53;100212.59;;;5.35;59.59
70488;BME280;57976;48.174;16.370;2023-03-01T09:02:58;100212.57;;;5.44;59.15
70488;BME280;57976;48.174;16.370;2023-03-01T09:05:02;100217.51;;;5.53;59.86
70488;BME280;57976;48.174;16.370;2023-03-01T09:07:07;100208.12;;;5.63;58.78
70488;BME280;57976;48.174;16.370;2023-03-01T09:09:15;100204.27;;;5.62;57.65
70488;BME280;57976;48.174;16.370;2023-03-01T09:11:21;100198.36;;;5.60;58.00
70488;BME280;57976;48.174;16.370;2023-03-01T09:13:26;100197.38;;;5.62;58.18
70488;BME280;57976;48.174;16.370;2023-03-01T09:15:31;100200.48;;;5.71;58.23
70488;BME280;57976;48.174;16.370;2023-03-01T09:17:36;100196.80;;;5.79;58.03
70488;BME280;57976;48.174;16.370;2023-03-01T09:19:41;100195.89;;;5.87;57.84
70488;BME280;57976;48.174;16.370;2023-03-01T09:21:45;100190.73;;;5.91;57.38
70488;BME280;57976;48.174;16.370;2023-03-01T09:23:50;100189.48;;;5.97;57.16
70488;BME280;57976;48.174;16.370;2023-03-01T09:25:55;100188.06;;;6.00;57.50
70488;BME280;57976;48.174;16.370;2023-03-01T09:28:00;100183.48;;;6.05;57.31
70488;BME280;57976;48.174;16.370;2023-03-01T09:30:06;100181.20;;;6.12;56.94
70488;BME280;57976;48.174;16.370;2023-03-01T09:32:11;100174.48;;;6.21;56.89
70488;BME280;57976;48.174;16.370;2023-03-01T09:34:16;100170.51;;;6.26;56.63
70488;BME280;57976;48.174;16.370;2023-03-01T09:36:23;100167.11;;;6.30;56.29
70488;BME280;57976;48.174;16.370;2023-03-01T09:38:30;100164.23;;;6.35;55.91
70488;BME280;57976;48.174;16.370;2023-03-01T09:40:34;100165.38;;;6.41;55.92
70488;BME280;57976;48.174;16.370;2023-03-01T09:42:48;100169.54;;;6.49;55.80
70488;BME280;57976;48.174;16.370;2023-03-01T09:44:57;100170.72;;;6.53;55.41
70488;BME280;57976;48.174;16.370;2023-03-01T09:47:11;100168.92;;;6.62;55.24
70488;BME280;57976;48.174;16.370;2023-03-01T09:49:19;100163.94;;;6.75;54.68
70488;BME280;57976;48.174;16.370;2023-03-01T09:51:29;100163.71;;;6.84;54.42
70488;BME280;57976;48.174;16.370;2023-03-01T09:53:34;100156.27;;;6.91;54.20
70488;BME280;57976;48.174;16.370;2023-03-01T09:55:42;100160.89;;;6.99;53.71
70488;BME280;57976;48.174;16.370;2023-03-01T09:57:49;100151.31;;;7.03;53.71
70488;BME280;57976;48.174;16.370;2023-03-01T10:00:05;100145.52;;;7.11;53.47
70488;BME280;57976;48.174;16.370;2023-03-01T10:02:23;100146.13;;;7.17;53.35
70488;BME280;57976;48.174;16.370;2023-03-01T10:04:44;100140.98;;;7.24;53.23
70488;BME280;57976;48.174;16.370;2023-03-01T10:06:55;100136.70;;;7.34;52.45
70488;BME280;57976;48.174;16.370;2023-03-01T10:09:03;100134.25;;;7.40;52.87
70488;BME280;57976;48.174;16.370;2023-03-01T10:11:20;100130.73;;;7.50;52.44
70488;BME280;57976;48.174;16.370;2023-03-01T10:13:36;100129.46;;;7.47;50.81
70488;BME280;57976;48.174;16.370;2023-03-01T10:15:50;100130.16;;;7.39;52.04
70488;BME280;57976;48.174;16.370;2023-03-01T10:17:57;100127.52;;;7.42;52.06
70488;BME280;57976;48.174;16.370;2023-03-01T10:20:18;100126.30;;;7.49;52.00
70488;BME280;57976;48.174;16.370;2023-03-01T10:22:26;100124.38;;;7.58;51.84
70488;BME280;57976;48.174;16.370;2023-03-01T10:24:34;100124.58;;;7.70;51.79
70488;BME280;57976;48.174;16.370;2023-03-01T10:26:47;100121.95;;;7.82;51.54
70488;BME280;57976;48.174;16.370;2023-03-01T10:28:57;100121.98;;;7.92;51.33
70488;BME280;57976;48.174;16.370;2023-03-01T10:31:07;100121.83;;;8.04;51.08
70488;BME280;57976;48.174;16.370;2023-03-01T10:33:19;100117.34;;;8.07;50.96
70488;BME280;57976;48.174;16.370;2023-03-01T10:35:28;100109.02;;;8.07;50.98
70488;BME280;57976;48.174;16.370;2023-03-01T10:37:33;100102.67;;;8.10;51.10
70488;BME280;57976;48.174;16.370;2023-03-01T10:39:56;100097.66;;;8.09;50.17
70488;BME280;57976;48.174;16.370;2023-03-01T10:42:03;100097.42;;;7.97;49.99
70488;BME280;57976;48.174;16.370;2023-03-01T10:44:42;100095.55;;;7.81;50.41
70488;BME280;57976;48.174;16.370;2023-03-01T10:47:00;100091.54;;;7.78;50.86
70488;BME280;57976;48.174;16.370;2023-03-01T10:49:16;100088.86;;;7.83;50.86
70488;BME280;57976;48.174;16.370;2023-03-01T10:51:20;100085.65;;;7.89;52.27
70488;BME280;57976;48.174;16.370;2023-03-01T10:53:29;100079.75;;;7.93;50.83
70488;BME280;57976;48.174;16.370;2023-03-01T10:55:36;100076.60;;;7.93;50.71
70488;BME280;57976;48.174;16.370;2023-03-01T10:57:41;100072.72;;;7.96;50.69
70488;BME280;57976;48.174;16.370;2023-03-01T10:59:46;100069.54;;;8.02;50.32
70488;BME280;57976;48.174;16.370;2023-03-01T11:02:16;100064.22;;;8.12;51.45
70488;BME280;57976;48.174;16.370;2023-03-01T11:04:29;100060.64;;;8.23;54.05
70488;BME280;57976;48.174;16.370;2023-03-01T11:06:34;100056.18;;;8.28;51.82
70488;BME280;57976;48.174;16.370;2023-03-01T11:08:44;100050.60;;;8.34;50.51
70488;BME280;57976;48.174;16.370;2023-03-01T11:10:49;100045.25;;;8.22;48.93
70488;BME280;57976;48.174;16.370;2023-03-01T11:13:05;100043.04;;;8.10;49.75
70488;BME280;57976;48.174;16.370;2023-03-01T11:15:22;100040.80;;;8.09;50.28
70488;BME280;57976;48.174;16.370;2023-03-01T11:17:29;100038.28;;;8.11;49.99
70488;BME280;57976;48.174;16.370;2023-03-01T11:19:42;100038.81;;;8.18;49.87
70488;BME280;57976;48.174;16.370;2023-03-01T11:22:02;100032.94;;;8.18;48.79
70488;BME280;57976;48.174;16.370;2023-03-01T11:24:11;100028.66;;;8.15;49.78
70488;BME280;57976;48.174;16.370;2023-03-01T11:26:18;100030.05;;;8.20;50.20
70488;BME280;57976;48.174;16.370;2023-03-01T11:28:23;100031.69;;;8.25;49.70
70488;BME280;57976;48.174;16.370;2023-03-01T11:30:35;100038.64;;;8.34;50.19
70488;BME280;57976;48.174;16.370;2023-03-01T11:32:43;100036.53;;;8.33;49.32
70488;BME280;57976;48.174;16.370;2023-03-01T11:34:53;100034.55;;;8.27;50.03
70488;BME280;57976;48.174;16.370;2023-03-01T11:37:02;100038.56;;;8.29;50.17
70488;BME280;57976;48.174;16.370;2023-03-01T11:39:18;100038.75;;;8.35;50.10
70488;BME280;57976;48.174;16.370;2023-03-01T11:41:31;100030.52;;;8.48;50.26
70488;BME280;57976;48.174;16.370;2023-03-01T11:43:50;100028.16;;;8.61;50.01
70488;BME280;57976;48.174;16.370;2023-03-01T11:46:32;100026.58;;;8.77;49.66
70488;BME280;57976;48.174;16.370;2023-03-01T11:48:47;100025.20;;;8.89;49.36
70488;BME280;57976;48.174;16.370;2023-03-01T11:50:56;100029.66;;;8.95;49.65
70488;BME280;57976;48.174;16.370;2023-03-01T11:53:14;100030.96;;;8.99;49.75
70488;BME280;57976;48.174;16.370;2023-03-01T11:55:51;100032.02;;;8.93;48.76
70488;BME280;57976;48.174;16.370;2023-03-01T11:58:21;100029.23;;;8.84;48.98
70488;BME280;57976;48.174;16.370;2023-03-01T12:00:43;100029.24;;;8.84;49.33
70488;BME280;57976;48.174;16.370;2023-03-01T12:03:22;100022.64;;;8.90;49.33
70488;BME280;57976;48.174;16.370;2023-03-01T12:08:06;100020.48;;;8.74;49.16
70488;BME280;57976;48.174;16.370;2023-03-01T12:10:23;100023.16;;;8.76;49.58
70488;BME280;57976;48.174;16.370;2023-03-01T12:12:33;100025.33;;;8.83;49.80
70488;BME280;57976;48.174;16.370;2023-03-01T12:14:56;100020.30;;;8.91;49.95
70488;BME280;57976;48.174;16.370;2023-03-01T12:17:15;100017.70;;;9.00;49.30
70488;BME280;57976;48.174;16.370;2023-03-01T12:19:46;100018.57;;;9.13;50.22
70488;BME280;57976;48.174;16.370;2023-03-01T12:22:12;100020.35;;;9.32;49.72
70488;BME280;57976;48.174;16.370;2023-03-01T12:24:42;100013.39;;;9.48;49.18
70488;BME280;57976;48.174;16.370;2023-03-01T12:27:01;100007.58;;;9.54;49.31
70488;BME280;57976;48.174;16.370;2023-03-01T12:29:27;100003.91;;;9.62;49.38
70488;BME280;57976;48.174;16.370;2023-03-01T12:31:46;99997.17;;;9.75;48.92
70488;BME280;57976;48.174;16.370;2023-03-01T12:34:01;99999.01;;;9.70;48.03
70488;BME280;57976;48.174;16.370;2023-03-01T12:36:26;99998.98;;;9.56;48.92
70488;BME280;57976;48.174;16.370;2023-03-01T12:38:40;99998.98;;;9.51;49.01
70488;BME280;57976;48.174;16.370;2023-03-01T12:41:00;99996.97;;;9.53;49.27
70488;BME280;57976;48.174;16.370;2023-03-01T12:43:19;99994.29;;;9.52;48.67
70488;BME280;57976;48.174;16.370;2023-03-01T12:45:39;99993.25;;;9.52;48.90
70488;BME280;57976;48.174;16.370;2023-03-01T12:48:02;99995.29;;;9.52;48.88
70488;BME280;57976;48.174;16.370;2023-03-01T12:50:18;99995.50;;;9.55;49.18
70488;BME280;57976;48.174;16.370;2023-03-01T12:52:35;99994.73;;;9.62;49.54
70488;BME280;57976;48.174;16.370;2023-03-01T12:54:42;99989.91;;;9.76;49.43
70488;BME280;57976;48.174;16.370;2023-03-01T12:56:48;99983.95;;;9.84;49.37
70488;BME280;57976;48.174;16.370;2023-03-01T12:59:02;99979.17;;;9.90;49.14
70488;BME280;57976;48.174;16.370;2023-03-01T13:01:19;99967.88;;;9.98;48.93
70488;BME280;57976;48.174;16.370;2023-03-01T13:03:35;99960.09;;;10.10;49.22
70488;BME280;57976;48.174;16.370;2023-03-01T13:05:50;99954.45;;;10.23;49.19
70488;BME280;57976;48.174;16.370;2023-03-01T13:08:07;99955.98;;;10.28;48.36
70488;BME280;57976;48.174;16.370;2023-03-01T13:10:21;99954.89;;;10.25;48.75
70488;BME280;57976;48.174;16.370;2023-03-01T13:12:47;99954.79;;;10.25;48.79
70488;BME280;57976;48.174;16.370;2023-03-01T13:14:56;99956.66;;;10.24;48.88
70488;BME280;57976;48.174;16.370;2023-03-01T13:17:00;99954.27;;;10.22;49.06
70488;BME280;57976;48.174;16.370;2023-03-01T13:19:12;99958.30;;;10.09;47.87
70488;BME280;57976;48.174;16.370;2023-03-01T13:21:30;99956.48;;;9.87;48.54
70488;BME280;57976;48.174;16.370;2023-03-01T13:23:37;99957.71;;;9.69;48.98
70488;BME280;57976;48.174;16.370;2023-03-01T13:26:07;99961.00;;;9.53;49.29
70488;BME280;57976;48.174;16.370;2023-03-01T13:31:00;99957.55;;;9.39;49.03
70488;BME280;57976;48.174;16.370;2023-03-01T13:33:38;99956.11;;;9.36;50.02
70488;BME280;57976;48.174;16.370;2023-03-01T13:35:45;99947.27;;;9.40;51.44
70488;BME280;57976;48.174;16.370;2023-03-01T13:37:50;99951.23;;;9.53;51.68
70488;BME280;57976;48.174;16.370;2023-03-01T13:39:55;99947.20;;;9.60;50.37
70488;BME280;57976;48.174;16.370;2023-03-01T13:42:00;99942.91;;;9.60;50.69
70488;BME280;57976;48.174;16.370;2023-03-01T13:44:13;99941.11;;;9.58;50.24
70488;BME280;57976;48.174;16.370;2023-03-01T13:46:25;99940.49;;;9.55;50.65
70488;BME280;57976;48.174;16.370;2023-03-01T13:48:31;99940.16;;;9.58;50.28
70488;BME280;57976;48.174;16.370;2023-03-01T13:50:45;99936.73;;;9.59;50.12
70488;BME280;57976;48.174;16.370;2023-03-01T13:52:55;99932.67;;;9.57;50.29
70488;BME280;57976;48.174;16.370;2023-03-01T13:55:00;99930.70;;;9.54;49.64
70488;BME280;57976;48.174;16.370;2023-03-01T13:57:05;99929.98;;;9.48;50.48
70488;BME280;57976;48.174;16.370;2023-03-01T13:59:20;99926.55;;;9.44;50.38
70488;BME280;57976;48.174;16.370;2023-03-01T14:01:28;99925.00;;;9.44;50.81
70488;BME280;57976;48.174;16.370;2023-03-01T14:03:40;99917.05;;;9.41;50.64
70488;BME280;57976;48.174;16.370;2023-03-01T14:05:59;99916.34;;;9.38;50.94
70488;BME280;57976;48.174;16.370;2023-03-01T14:08:23;99911.27;;;9.34;51.10
70488;BME280;57976;48.174;16.370;2023-03-01T14:10:40;99904.73;;;9.28;51.34
70488;BME280;57976;48.174;16.370;2023-03-01T14:12:50;99903.79;;;9.24;51.30
70488;BME280;57976;48.174;16.370;2023-03-01T14:15:04;99899.14;;;9.16;51.29
70488;BME280;57976;48.174;16.370;2023-03-01T14:17:44;99903.40;;;9.11;51.61
70488;BME280;57976;48.174;16.370;2023-03-01T14:19:57;99900.27;;;9.06;51.90
70488;BME280;57976;48.174;16.370;2023-03-01T14:22:10;99896.89;;;8.96;51.84
70488;BME280;57976;48.174;16.370;2023-03-01T14:24:20;99896.75;;;8.86;52.28
70488;BME280;57976;48.174;16.370;2023-03-01T14:26:26;99900.42;;;8.83;52.62
70488;BME280;57976;48.174;16.370;2023-03-01T14:28:34;99897.31;;;8.81;52.66
70488;BME280;57976;48.174;16.370;2023-03-01T14:30:44;99897.23;;;8.83;52.70
70488;BME280;57976;48.174;16.370;2023-03-01T14:32:56;99892.67;;;8.85;53.00
70488;BME280;57976;48.174;16.370;2023-03-01T14:35:02;99893.19;;;8.83;53.21
70488;BME280;57976;48.174;16.370;2023-03-01T14:37:20;99897.67;;;8.78;53.24
70488;BME280;57976;48.174;16.370;2023-03-01T14:39:26;99895.91;;;8.70;53.46
70488;BME280;57976;48.174;16.370;2023-03-01T14:41:33;99894.40;;;8.70;53.87
70488;BME280;57976;48.174;16.370;2023-03-01T14:43:40;99885.91;;;8.68;53.87
70488;BME280;57976;48.174;16.370;2023-03-01T14:45:50;99890.24;;;8.69;54.13
70488;BME280;57976;48.174;16.370;2023-03-01T14:47:55;99890.83;;;8.68;54.18
70488;BME280;57976;48.174;16.370;2023-03-01T14:50:07;99894.05;;;8.65;54.16
70488;BME280;57976;48.174;16.370;2023-03-01T14:52:22;99889.30;;;8.66;54.65
70488;BME280;57976;48.174;16.370;2023-03-01T14:54:35;99888.16;;;8.73;54.55
70488;BME280;57976;48.174;16.370;2023-03-01T14:56:47;99887.83;;;8.76;54.62
70488;BME280;57976;48.174;16.370;2023-03-01T14:58:54;99885.60;;;8.78;54.59
70488;BME280;57976;48.174;16.370;2023-03-01T15:01:03;99888.17;;;8.84;54.61
70488;BME280;57976;48.174;16.370;2023-03-01T15:03:13;99889.11;;;8.88;54.39
70488;BME280;57976;48.174;16.370;2023-03-01T15:05:24;99888.23;;;8.96;54.40
70488;BME280;57976;48.174;16.370;2023-03-01T15:07:32;99885.29;;;9.05;54.68
70488;BME280;57976;48.174;16.370;2023-03-01T15:09:39;99881.84;;;9.15;55.13
70488;BME280;57976;48.174;16.370;2023-03-01T15:11:44;99886.38;;;9.25;55.43
70488;BME280;57976;48.174;16.370;2023-03-01T15:13:49;99885.23;;;9.31;54.57
70488;BME280;57976;48.174;16.370;2023-03-01T15:16:02;99883.33;;;9.35;53.62
70488;BME280;57976;48.174;16.370;2023-03-01T15:18:16;99877.76;;;9.30;53.66
70488;BME280;57976;48.174;16.370;2023-03-01T15:20:25;99877.45;;;9.24;53.67
70488;BME280;57976;48.174;16.370;2023-03-01T15:22:30;99880.78;;;9.15;53.45
70488;BME280;57976;48.174;16.370;2023-03-01T15:24:35;99877.35;;;9.02;53.89
70488;BME280;57976;48.174;16.370;2023-03-01T15:26:42;99878.64;;;8.94;53.82
70488;BME280;57976;48.174;16.370;2023-03-01T15:28:52;99882.34;;;8.91;54.10
70488;BME280;57976;48.174;16.370;2023-03-01T15:31:02;99878.04;;;8.88;54.25
70488;BME280;57976;48.174;16.370;2023-03-01T15:33:31;99879.50;;;8.82;54.02
70488;BME280;57976;48.174;16.370;2023-03-01T15:35:41;99879.89;;;8.76;54.68
70488;BME280;57976;48.174;16.370;2023-03-01T15:37:49;99876.90;;;8.69;54.20
70488;BME280;57976;48.174;16.370;2023-03-01T15:39:56;99875.73;;;8.64;54.68
70488;BME280;57976;48.174;16.370;2023-03-01T15:42:04;99872.80;;;8.59;54.88
70488;BME280;57976;48.174;16.370;2023-03-01T15:44:18;99872.19;;;8.54;54.96
70488;BME280;57976;48.174;16.370;2023-03-01T15:46:34;99873.56;;;8.55;55.13
70488;BME280;57976;48.174;16.370;2023-03-01T15:48:43;99875.45;;;8.58;54.79
70488;BME280;57976;48.174;16.370;2023-03-01T15:50:55;99878.23;;;8.63;55.18
70488;BME280;57976;48.174;16.370;2023-03-01T15:53:04;99881.80;;;8.70;54.79
70488;BME280;57976;48.174;16.370;2023-03-01T15:55:18;99879.60;;;8.74;55.08
70488;BME280;57976;48.174;16.370;2023-03-01T15:57:23;99885.29;;;8.78;54.91
70488;BME280;57976;48.174;16.370;2023-03-01T15:59:28;99881.67;;;8.82;54.58
70488;BME280;57976;48.174;16.370;2023-03-01T16:01:33;99881.23;;;8.82;54.43
70488;BME280;57976;48.174;16.370;2023-03-01T16:03:39;99880.36;;;8.84;54.80
70488;BME280;57976;48.174;16.370;2023-03-01T16:05:44;99880.23;;;8.85;54.67
70488;BME280;57976;48.174;16.370;2023-03-01T16:07:48;99876.60;;;8.86;54.25
70488;BME280;57976;48.174;16.370;2023-03-01T16:09:53;99871.67;;;8.82;54.39
70488;BME280;57976;48.174;16.370;2023-03-01T16:11:58;99871.03;;;8.77;54.43
70488;BME280;57976;48.174;16.370;2023-03-01T16:14:04;99871.56;;;8.74;54.37
70488;BME280;57976;48.174;16.370;2023-03-01T16:16:11;99873.88;;;8.70;54.45
70488;BME280;57976;48.174;16.370;2023-03-01T16:18:16;99874.98;;;8.63;54.15
70488;BME280;57976;48.174;16.370;2023-03-01T16:20:22;99871.43;;;8.57;54.37
70488;BME280;57976;48.174;16.370;2023-03-01T16:22:33;99873.78;;;8.52;54.70
70488;BME280;57976;48.174;16.370;2023-03-01T16:24:38;99874.86;;;8.50;54.91
70488;BME280;57976;48.174;16.370;2023-03-01T16:26:44;99870.48;;;8.47;55.06
70488;BME280;57976;48.174;16.370;2023-03-01T16:28:49;99864.46;;;8.44;54.91
70488;BME280;57976;48.174;16.370;2023-03-01T16:30:54;99863.90;;;8.40;54.57
70488;BME280;57976;48.174;16.370;2023-03-01T16:32:59;99866.14;;;8.39;55.12
70488;BME280;57976;48.174;16.370;2023-03-01T16:35:04;99869.27;;;8.39;55.11
70488;BME280;57976;48.174;16.370;2023-03-01T16:37:10;99872.59;;;8.38;55.17
70488;BME280;57976;48.174;16.370;2023-03-01T16:39:15;99869.88;;;8.37;55.27
70488;BME280;57976;48.174;16.370;2023-03-01T16:41:22;99871.93;;;8.37;55.24
70488;BME280;57976;48.174;16.370;2023-03-01T16:43:27;99875.91;;;8.37;55.18
70488;BME280;57976;48.174;16.370;2023-03-01T16:45:35;99874.51;;;8.34;55.14
70488;BME280;57976;48.174;16.370;2023-03-01T16:47:40;99878.47;;;8.30;54.73
70488;BME280;57976;48.174;16.370;2023-03-01T16:49:45;99880.70;;;8.26;54.88
70488;BME280;57976;48.174;16.370;2023-03-01T16:51:54;99882.11;;;8.23;54.92
70488;BME280;57976;48.174;16.370;2023-03-01T16:54:00;99881.37;;;8.19;55.18
70488;BME280;57976;48.174;16.370;2023-03-01T16:56:07;99879.02;;;8.20;55.35
70488;BME280;57976;48.174;16.370;2023-03-01T16:58:13;99879.75;;;8.23;55.39
70488;BME280;57976;48.174;16.370;2023-03-01T17:00:19;99886.05;;;8.27;55.18
70488;BME280;57976;48.174;16.370;2023-03-01T17:02:25;99886.90;;;8.31;55.11
70488;BME280;57976;48.174;16.370;2023-03-01T17:04:33;99886.29;;;8.33;54.95
70488;BME280;57976;48.174;16.370;2023-03-01T17:06:38;99882.04;;;8.33;54.92
70488;BME280;57976;48.174;16.370;2023-03-01T17:08:43;99887.95;;;8.32;54.84
70488;BME280;57976;48.174;16.370;2023-03-01T17:10:51;99889.80;;;8.30;54.70
70488;BME280;57976;48.174;16.370;2023-03-01T17:12:56;99888.36;;;8.27;54.88
70488;BME280;57976;48.174;16.370;2023-03-01T17:15:01;99883.95;;;8.27;54.98
70488;BME280;57976;48.174;16.370;2023-03-01T17:17:07;99885.55;;;8.27;54.97
70488;BME280;57976;48.174;16.370;2023-03-01T17:19:12;99883.88;;;8.24;54.78
70488;BME280;57976;48.174;16.370;2023-03-01T17:21:20;99880.23;;;8.22;54.75
70488;BME280;57976;48.174;16.370;2023-03-01T17:23:25;99883.85;;;8.21;54.76
70488;BME280;57976;48.174;16.370;2023-03-01T17:25:30;99883.67;;;8.18;54.56
70488;BME280;57976;48.174;16.370;2023-03-01T17:27:36;99885.92;;;8.15;54.89
70488;BME280;57976;48.174;16.370;2023-03-01T17:29:43;99888.40;;;8.13;55.00
70488;BME280;57976;48.174;16.370;2023-03-01T17:31:48;99887.80;;;8.13;54.77
70488;BME280;57976;48.174;16.370;2023-03-01T17:33:54;99887.84;;;8.11;54.88
70488;BME280;57976;48.174;16.370;2023-03-01T17:36:03;99887.77;;;8.08;54.91
70488;BME280;57976;48.174;16.370;2023-03-01T17:38:09;99892.39;;;8.05;55.17
70488;BME280;57976;48.174;16.370;2023-03-01T17:40:15;99895.42;;;8.01;55.20
70488;BME280;57976;48.174;16.370;2023-03-01T17:42:21;99898.12;;;7.99;55.43
70488;BME280;57976;48.174;16.370;2023-03-01T17:44:30;99897.55;;;7.98;55.19
70488;BME280;57976;48.174;16.370;2023-03-01T17:46:35;99898.26;;;7.98;55.16
70488;BME280;57976;48.174;16.370;2023-03-01T17:48:40;99895.85;;;7.95;55.27
70488;BME280;57976;48.174;16.370;2023-03-01T17:50:46;99897.41;;;7.93;55.48
70488;BME280;57976;48.174;16.370;2023-03-01T17:52:52;99892.63;;;7.93;55.14
70488;BME280;57976;48.174;16.370;2023-03-01T17:54:59;99891.40;;;7.93;55.48
70488;BME280;57976;48.174;16.370;2023-03-01T17:57:04;99893.50;;;7.90;55.34
70488;BME280;57976;48.174;16.370;2023-03-01T17:59:10;99896.70;;;7.89;55.58
70488;BME280;57976;48.174;16.370;2023-03-01T18:01:17;99897.85;;;7.86;55.58
70488;BME280;57976;48.174;16.370;2023-03-01T18:03:24;99893.02;;;7.83;55.76
70488;BME280;57976;48.174;16.370;2023-03-01T18:05:35;99891.14;;;7.81;55.66
70488;BME280;57976;48.174;16.370;2023-03-01T18:07:41;99892.14;;;7.80;55.63
70488;BME280;57976;48.174;16.370;2023-03-01T18:09:47;99891.47;;;7.77;55.74
70488;BME280;57976;48.174;16.370;2023-03-01T18:11:53;99891.58;;;7.74;55.90
70488;BME280;57976;48.174;16.370;2023-03-01T18:13:58;99891.15;;;7.75;55.98
70488;BME280;57976;48.174;16.370;2023-03-01T18:16:07;99892.67;;;7.76;56.14
70488;BME280;57976;48.174;16.370;2023-03-01T18:18:13;99890.36;;;7.73;55.93
70488;BME280;57976;48.174;16.370;2023-03-01T18:20:21;99890.48;;;7.70;55.99
70488;BME280;57976;48.174;16.370;2023-03-01T18:22:28;99891.82;;;7.66;55.96
70488;BME280;57976;48.174;16.370;2023-03-01T18:24:33;99893.77;;;7.63;56.18
70488;BME280;57976;48.174;16.370;2023-03-01T18:26:39;99895.75;;;7.62;56.35
70488;BME280;57976;48.174;16.370;2023-03-01T18:28:45;99896.58;;;7.60;56.29
70488;BME280;57976;48.174;16.370;2023-03-01T18:30:57;99895.56;;;7.56;56.41
70488;BME280;57976;48.174;16.370;2023-03-01T18:33:03;99891.69;;;7.55;56.53
70488;BME280;57976;48.174;16.370;2023-03-01T18:35:10;99892.08;;;7.54;56.71
70488;BME280;57976;48.174;16.370;2023-03-01T18:37:16;99892.60;;;7.53;56.66
70488;BME280;57976;48.174;16.370;2023-03-01T18:39:25;99896.29;;;7.53;56.62